createdAt,value
2018-07-03T00:01:06.635Z,13.88
2018-07-03T00:03:35.417Z,14.53
2018-07-03T00:06:05.089Z,14.00
2018-07-03T00:08:33.753Z,14.57
2018-07-03T00:11:02.416Z,14.07
2018-07-03T00:13:31.122Z,13.95
2018-07-03T00:15:59.821Z,13.89
2018-07-03T00:18:28.513Z,14.52
2018-07-03T00:20:57.195Z,14.04
2018-07-03T00:23:25.856Z,13.88
2018-07-03T00:25:55.097Z,13.75
2018-07-03T00:28:23.763Z,13.69
2018-07-03T00:30:52.486Z,13.67
2018-07-03T00:33:21.542Z,13.63
2018-07-03T00:35:50.494Z,13.58
2018-07-03T00:38:19.168Z,13.54
2018-07-03T00:40:47.839Z,13.47
2018-07-03T00:43:16.495Z,13.36
2018-07-03T00:45:45.153Z,13.26
2018-07-03T00:48:13.864Z,13.23
2018-07-03T00:50:42.487Z,13.19
2018-07-03T00:53:11.190Z,13.15
2018-07-03T00:55:39.831Z,13.81
2018-07-03T00:58:08.528Z,14.00
2018-07-03T01:00:37.180Z,13.54
2018-07-03T01:03:05.872Z,13.42
2018-07-03T01:05:34.693Z,13.38
2018-07-03T01:08:03.452Z,13.34
2018-07-03T01:10:32.090Z,13.30
2018-07-03T01:13:00.760Z,13.26
2018-07-03T01:15:29.398Z,13.23
2018-07-03T01:17:58.094Z,13.22
2018-07-03T01:20:26.774Z,13.21
2018-07-03T01:22:55.438Z,13.19
2018-07-03T01:25:24.096Z,13.17
2018-07-03T01:27:52.768Z,13.16
2018-07-03T01:30:21.447Z,13.14
2018-07-03T01:32:50.395Z,13.15
2018-07-03T01:35:19.388Z,13.14
2018-07-03T01:37:48.293Z,13.12
2018-07-03T01:40:16.914Z,13.07
2018-07-03T01:42:45.565Z,12.97
2018-07-03T01:45:14.253Z,12.86
2018-07-03T01:47:42.928Z,12.75
2018-07-03T01:50:11.667Z,12.64
2018-07-03T01:52:40.252Z,12.55
2018-07-03T01:55:08.912Z,12.51
2018-07-03T01:57:37.568Z,12.48
2018-07-03T02:00:06.441Z,12.47
2018-07-03T02:02:35.365Z,13.13
2018-07-03T02:05:04.357Z,12.73
2018-07-03T02:07:33.277Z,12.68
2018-07-03T02:10:02.352Z,12.65
2018-07-03T02:12:31.278Z,12.63
2018-07-03T02:15:00.137Z,12.60
2018-07-03T02:17:29.147Z,12.55
2018-07-03T02:19:58.180Z,12.45
2018-07-03T02:22:27.304Z,12.36
2018-07-03T02:24:56.649Z,12.99
2018-07-03T02:27:25.144Z,12.44
2018-07-03T02:29:54.178Z,12.25
2018-07-03T02:32:23.374Z,12.10
2018-07-03T02:34:52.247Z,11.97
2018-07-03T02:37:21.203Z,11.87
2018-07-03T02:39:50.161Z,11.78
2018-07-03T02:42:19.201Z,12.42
2018-07-03T02:44:48.114Z,11.84
2018-07-03T02:47:17.133Z,11.66
2018-07-03T02:49:46.101Z,12.29
2018-07-03T02:52:15.329Z,11.73
2018-07-03T02:54:44.388Z,11.58
2018-07-03T02:57:13.381Z,11.50
2018-07-03T02:59:42.488Z,11.44
2018-07-03T03:02:11.392Z,11.37
2018-07-03T03:04:40.443Z,12.04
2018-07-03T03:07:09.415Z,11.48
2018-07-03T03:09:38.583Z,11.34
2018-07-03T03:12:07.358Z,11.26
2018-07-03T03:14:36.424Z,11.23
2018-07-03T03:17:08.469Z,11.21
2018-07-03T03:19:37.564Z,11.91
2018-07-03T03:22:06.443Z,11.43
2018-07-03T03:24:35.550Z,11.35
2018-07-03T03:27:06.855Z,11.33
2018-07-03T03:29:35.777Z,11.34
2018-07-03T03:32:04.715Z,11.35
2018-07-03T03:34:34.959Z,11.34
2018-07-03T03:37:04.229Z,11.32
2018-07-03T03:39:32.890Z,11.32
2018-07-03T03:42:01.613Z,11.33
2018-07-03T03:44:30.277Z,11.34
2018-07-03T03:46:58.974Z,11.35
2018-07-03T03:49:27.631Z,11.40
2018-07-03T03:51:56.309Z,11.48
2018-07-03T03:54:25.061Z,11.58
2018-07-03T03:56:53.701Z,12.36
2018-07-03T03:59:22.393Z,12.04
2018-07-03T04:01:51.087Z,12.16
2018-07-03T04:04:19.761Z,12.95
2018-07-03T04:06:48.462Z,12.66
2018-07-03T04:09:17.239Z,12.69
2018-07-03T04:11:45.949Z,12.77
2018-07-03T04:14:14.601Z,12.85
2018-07-03T04:16:43.292Z,13.59
2018-07-03T04:19:11.980Z,13.29
2018-07-03T04:21:40.659Z,13.32
2018-07-03T04:24:09.447Z,13.39
2018-07-03T04:26:38.239Z,13.45
2018-07-03T04:29:06.893Z,13.50
2018-07-03T04:31:35.560Z,14.23
2018-07-03T04:34:04.256Z,13.88
2018-07-03T04:36:33.294Z,13.86
2018-07-03T04:39:02.469Z,13.90
2018-07-03T04:41:31.396Z,13.95
2018-07-03T04:44:00.754Z,14.01
2018-07-03T04:46:29.722Z,14.07
2018-07-03T04:48:58.411Z,14.81
2018-07-03T04:51:27.286Z,14.48
2018-07-03T04:53:56.627Z,14.48
2018-07-03T04:56:25.928Z,14.54
2018-07-03T04:58:55.683Z,14.58
2018-07-03T05:01:24.886Z,14.66
2018-07-03T05:03:54.337Z,14.76
2018-07-03T05:06:23.575Z,14.85
2018-07-03T05:08:52.906Z,14.94
2018-07-03T05:11:22.411Z,15.04
2018-07-03T05:13:51.432Z,15.15
2018-07-03T05:16:20.632Z,15.23
2018-07-03T05:18:49.655Z,15.34
2018-07-03T05:21:18.494Z,15.47
2018-07-03T05:23:47.634Z,15.59
2018-07-03T05:26:17.409Z,15.70
2018-07-03T05:28:46.773Z,16.46
2018-07-03T05:31:15.999Z,16.18
2018-07-03T05:33:44.989Z,16.28
2018-07-03T05:36:14.319Z,17.05
2018-07-03T05:38:43.348Z,16.79
2018-07-03T05:41:12.593Z,16.93
2018-07-03T05:43:41.235Z,17.05
2018-07-03T05:46:10.552Z,17.18
2018-07-03T05:48:39.638Z,17.97
2018-07-03T05:51:08.861Z,17.79
2018-07-03T05:53:38.762Z,17.93
2018-07-03T05:56:07.904Z,18.10
2018-07-03T05:58:38.123Z,18.32
2018-07-03T06:01:07.021Z,18.52
2018-07-03T06:03:36.084Z,18.74
2018-07-03T06:06:04.803Z,18.95
2018-07-03T06:08:34.095Z,19.15
2018-07-03T06:11:03.017Z,19.39
2018-07-03T06:13:32.379Z,19.65
2018-07-03T06:16:01.460Z,19.93
2018-07-03T06:18:30.926Z,20.19
2018-07-03T06:21:02.818Z,20.46
2018-07-03T06:23:31.576Z,20.67
2018-07-03T06:26:01.012Z,20.86
2018-07-03T06:28:29.514Z,21.02
2018-07-03T06:30:58.594Z,21.81
2018-07-03T06:33:27.918Z,21.64
2018-07-03T06:35:56.857Z,21.81
2018-07-03T06:38:25.820Z,22.02
2018-07-03T06:40:54.597Z,22.22
2018-07-03T06:43:23.317Z,22.34
2018-07-03T06:45:52.625Z,22.57
2018-07-03T06:48:21.978Z,23.40
2018-07-03T06:50:51.230Z,23.17
2018-07-03T06:53:21.089Z,23.33
2018-07-03T06:55:50.433Z,23.49
2018-07-03T06:58:18.997Z,23.62
2018-07-03T07:00:47.667Z,23.77
2018-07-03T07:03:16.395Z,23.97
2018-07-03T07:05:45.051Z,24.84
2018-07-03T07:08:13.769Z,24.59
2018-07-03T07:10:42.599Z,24.68
2018-07-03T07:13:11.271Z,25.55
2018-07-03T07:15:39.979Z,25.23
2018-07-03T07:18:09.235Z,25.30
2018-07-03T07:20:38.755Z,25.35
2018-07-03T07:23:07.524Z,25.53
2018-07-03T07:25:39.213Z,25.66
2018-07-03T07:28:08.930Z,25.71
2018-07-03T07:30:38.259Z,25.72
2018-07-03T07:33:10.551Z,25.85
2018-07-03T07:35:41.536Z,25.96
2018-07-03T07:38:12.306Z,26.15
2018-07-03T07:40:41.573Z,26.10
2018-07-03T07:43:10.446Z,26.13
2018-07-03T07:45:39.156Z,26.30
2018-07-03T07:48:09.187Z,26.44
2018-07-03T07:50:38.153Z,27.43
2018-07-03T07:53:06.964Z,27.04
2018-07-03T07:55:35.747Z,26.91
2018-07-03T07:58:04.875Z,27.70
2018-07-03T08:00:34.571Z,27.04
2018-07-03T08:03:03.492Z,27.92
2018-07-03T08:05:32.190Z,27.27
2018-07-03T08:08:00.911Z,27.23
2018-07-03T08:10:29.611Z,28.17
2018-07-03T08:12:58.346Z,27.50
2018-07-03T08:15:27.022Z,27.44
2018-07-03T08:17:55.809Z,27.45
2018-07-03T08:20:24.558Z,27.50
2018-07-03T08:22:53.257Z,27.47
2018-07-03T08:25:22.027Z,27.44
2018-07-03T08:27:50.772Z,28.49
2018-07-03T08:30:19.526Z,27.91
2018-07-03T08:32:48.241Z,27.74
2018-07-03T08:35:16.957Z,27.71
2018-07-03T08:37:46.702Z,27.83
2018-07-03T08:40:15.488Z,27.98
2018-07-03T08:42:44.287Z,27.89
2018-07-03T08:45:12.910Z,27.96
2018-07-03T08:47:42.621Z,27.96
2018-07-03T08:50:11.553Z,28.12
2018-07-03T08:52:41.517Z,29.22
2018-07-03T08:55:14.997Z,28.54
2018-07-03T08:57:44.773Z,28.34
2018-07-03T09:00:14.122Z,28.29
2018-07-03T09:02:43.879Z,28.27
2018-07-03T09:05:12.604Z,28.18
2018-07-03T09:07:41.434Z,28.30
2018-07-03T09:10:10.715Z,28.35
2018-07-03T09:12:39.539Z,28.26
2018-07-03T09:15:08.227Z,28.42
2018-07-03T09:17:36.987Z,28.68
2018-07-03T09:20:05.761Z,28.81
2018-07-03T09:22:34.431Z,28.90
2018-07-03T09:25:03.122Z,28.96
2018-07-03T09:27:31.778Z,28.96
2018-07-03T09:30:01.459Z,29.13
2018-07-03T09:32:30.136Z,29.11
2018-07-03T09:34:58.902Z,29.17
2018-07-03T09:37:30.409Z,29.22
2018-07-03T09:42:46.724Z,29.37
2018-07-03T09:45:15.485Z,29.17
2018-07-03T09:47:44.158Z,29.20
2018-07-03T09:50:12.849Z,29.30
2018-07-03T09:52:49.220Z,29.41
2018-07-03T09:55:17.920Z,30.78
2018-07-03T09:57:46.594Z,31.18
2018-07-03T10:00:15.424Z,31.43
2018-07-03T10:02:44.169Z,30.51
2018-07-03T10:05:12.906Z,30.44
2018-07-03T10:07:41.609Z,30.42
2018-07-03T10:10:10.481Z,30.55
2018-07-03T10:12:39.281Z,30.56
2018-07-03T10:15:08.072Z,30.60
2018-07-03T10:17:36.694Z,30.82
2018-07-03T10:20:05.398Z,30.84
2018-07-03T10:22:34.328Z,31.94
2018-07-03T10:25:03.067Z,31.11
2018-07-03T10:27:32.070Z,30.91
2018-07-03T10:30:03.100Z,30.82
2018-07-03T10:32:31.766Z,30.74
2018-07-03T10:35:00.498Z,30.93
2018-07-03T10:37:29.271Z,31.03
2018-07-03T10:39:58.008Z,31.10
2018-07-03T10:42:26.780Z,31.07
2018-07-03T10:44:55.471Z,30.96
2018-07-03T10:47:24.794Z,30.99
2018-07-03T10:49:53.481Z,31.11
2018-07-03T10:52:22.128Z,31.34
2018-07-03T10:54:50.814Z,31.42
2018-07-03T10:57:19.515Z,31.55
2018-07-03T10:59:48.205Z,31.38
2018-07-03T11:02:16.887Z,31.63
2018-07-03T11:04:45.572Z,32.85
2018-07-03T11:07:14.274Z,32.02
2018-07-03T11:09:42.889Z,31.96
2018-07-03T11:12:11.600Z,31.74
2018-07-03T11:14:40.300Z,32.77
2018-07-03T11:17:08.986Z,32.81
2018-07-03T11:19:37.758Z,32.05
2018-07-03T11:22:06.453Z,32.10
2018-07-03T11:24:35.420Z,32.17
2018-07-03T11:27:04.052Z,32.26
2018-07-03T11:29:32.746Z,32.33
2018-07-03T11:32:01.417Z,33.48
2018-07-03T11:34:30.186Z,33.60
2018-07-03T11:36:58.829Z,32.67
2018-07-03T11:39:27.506Z,32.35
2018-07-03T11:41:56.146Z,32.21
2018-07-03T11:44:24.852Z,32.06
2018-07-03T11:46:53.498Z,31.96
2018-07-03T11:49:24.728Z,32.09
2018-07-03T11:51:54.054Z,31.96
2018-07-03T11:54:23.184Z,32.02
2018-07-03T11:56:51.737Z,32.03
2018-07-03T11:59:20.441Z,32.21
2018-07-03T12:01:49.069Z,32.45
2018-07-03T12:04:17.742Z,32.61
2018-07-03T12:06:46.390Z,33.82
2018-07-03T12:09:15.149Z,33.28
2018-07-03T12:11:43.773Z,33.38
2018-07-03T12:14:12.461Z,33.28
2018-07-03T12:16:41.140Z,33.18
2018-07-03T12:46:12.443Z,33.26
2018-07-03T12:48:41.097Z,34.18
2018-07-03T12:51:10.434Z,33.44
2018-07-03T12:53:39.100Z,33.26
2018-07-03T12:56:08.062Z,33.24
2018-07-03T12:58:38.200Z,33.22
2018-07-03T13:01:07.337Z,33.11
2018-07-03T13:03:36.255Z,33.27
2018-07-03T13:06:09.878Z,33.48
2018-07-03T13:08:39.058Z,33.61
2018-07-03T13:11:08.200Z,33.51
2018-07-03T13:13:37.404Z,33.61
2018-07-03T13:16:05.990Z,33.52
2018-07-03T13:21:24.953Z,33.35
2018-07-03T13:23:59.033Z,33.43
2018-07-03T13:26:34.169Z,33.59
2018-07-03T13:29:08.315Z,34.61
2018-07-03T13:31:37.696Z,34.02
2018-07-03T13:34:10.324Z,34.96
2018-07-03T13:36:45.421Z,35.27
2018-07-03T13:39:15.506Z,34.61
2018-07-03T13:41:45.327Z,34.60
2018-07-03T13:53:09.043Z,34.50
2018-07-03T13:55:38.339Z,34.51
2018-07-03T13:58:07.398Z,34.65
2018-07-03T14:00:37.471Z,34.70
2018-07-03T14:03:08.648Z,34.63
2018-07-03T14:05:37.965Z,34.52
2018-07-03T14:08:10.717Z,35.36
2018-07-03T14:10:42.652Z,35.61
2018-07-03T14:13:11.820Z,35.12
2018-07-03T14:15:42.752Z,35.08
2018-07-03T14:18:12.902Z,35.05
2018-07-03T14:20:43.589Z,35.18
2018-07-03T14:23:12.909Z,35.19
2018-07-03T14:25:41.938Z,35.13
2018-07-03T14:28:10.863Z,35.31
2018-07-03T14:30:40.280Z,35.37
2018-07-03T14:33:09.413Z,35.28
2018-07-03T14:35:38.135Z,35.24
2018-07-03T14:38:07.278Z,35.25
2018-07-03T14:40:35.988Z,35.38
2018-07-03T14:43:05.141Z,35.54
2018-07-03T14:45:34.563Z,35.36
2018-07-03T14:48:03.271Z,36.78
2018-07-03T14:50:32.437Z,37.40
2018-07-03T14:53:05.447Z,37.00
2018-07-03T14:55:34.144Z,37.46
2018-07-03T14:58:04.761Z,37.81
2018-07-03T15:00:37.032Z,38.09
2018-07-03T15:03:04.147Z,38.33
2018-07-03T15:05:33.045Z,38.33
2018-07-03T15:08:02.353Z,39.51
2018-07-03T15:10:34.825Z,39.28
2018-07-03T15:13:04.268Z,40.32
2018-07-03T15:15:34.919Z,39.63
2018-07-03T15:18:05.918Z,39.29
2018-07-03T15:20:41.698Z,39.09
2018-07-03T15:23:13.702Z,38.69
2018-07-03T15:25:44.936Z,38.82
2018-07-03T15:28:15.737Z,39.10
2018-07-03T15:30:45.621Z,40.58
2018-07-03T15:33:16.417Z,39.35
2018-07-03T15:35:54.422Z,39.50
2018-07-03T15:38:23.784Z,39.72
2018-07-03T15:40:55.081Z,39.47
2018-07-03T15:43:24.441Z,39.37
2018-07-03T15:45:59.527Z,39.60
2018-07-03T15:48:29.883Z,39.64
2018-07-03T15:51:04.489Z,39.69
2018-07-03T15:53:33.797Z,39.35
2018-07-03T15:56:03.143Z,39.53
2018-07-03T15:58:34.825Z,38.79
2018-07-03T16:01:10.361Z,38.41
2018-07-03T16:03:48.335Z,37.85
2018-07-03T16:09:34.290Z,36.77
2018-07-03T16:12:09.567Z,36.21
2018-07-03T16:14:46.730Z,35.85
2018-07-03T16:17:22.020Z,37.38
2018-07-03T16:19:54.908Z,36.49
2018-07-03T16:22:26.700Z,36.37
2018-07-03T16:24:59.892Z,36.30
2018-07-03T16:27:41.056Z,36.18
2018-07-03T16:30:17.846Z,35.92
2018-07-03T16:35:40.034Z,36.07
2018-07-03T16:38:09.864Z,35.60
2018-07-03T16:40:43.478Z,35.93
2018-07-03T16:43:13.650Z,36.25
2018-07-03T16:45:45.347Z,36.81
2018-07-03T16:48:20.641Z,37.55
2018-07-03T16:50:54.445Z,38.25
2018-07-03T16:53:35.207Z,38.54
2018-07-03T16:56:05.710Z,38.40
2018-07-03T16:58:37.168Z,38.27
2018-07-03T17:01:11.949Z,38.34
2018-07-03T17:03:42.671Z,38.19
2018-07-03T17:06:16.437Z,38.60
2018-07-03T17:08:59.919Z,39.22
2018-07-03T17:11:36.195Z,39.84
2018-07-03T17:14:09.484Z,40.18
2018-07-03T17:22:32.135Z,42.50
2018-07-03T17:25:02.261Z,40.65
2018-07-03T17:27:35.310Z,39.87
2018-07-03T17:30:06.365Z,40.62
2018-07-03T17:32:38.079Z,38.48
2018-07-03T17:35:08.423Z,37.62
2018-07-03T17:37:40.061Z,36.99
2018-07-03T17:40:39.296Z,36.71
2018-07-03T17:43:10.676Z,37.50
2018-07-03T17:45:53.941Z,38.72
2018-07-03T17:48:25.996Z,39.70
2018-07-03T17:50:56.204Z,40.28
2018-07-03T17:53:26.966Z,40.30
2018-07-03T17:56:07.106Z,39.97
2018-07-03T17:58:41.513Z,39.26
2018-07-03T18:01:24.672Z,38.65
2018-07-03T18:03:59.558Z,37.81
2018-07-03T18:06:29.127Z,39.22
2018-07-03T18:09:06.024Z,36.85
2018-07-03T18:11:39.438Z,35.69
2018-07-03T18:14:10.369Z,34.76
2018-07-03T18:16:46.623Z,34.10
2018-07-03T18:19:17.543Z,33.76
2018-07-03T18:24:40.545Z,32.76
2018-07-03T18:30:11.119Z,31.82
2018-07-03T18:32:43.464Z,31.30
2018-07-03T18:35:14.262Z,30.87
2018-07-03T18:38:04.387Z,30.53
2018-07-03T18:40:40.588Z,30.18
2018-07-03T18:43:16.975Z,29.84
2018-07-03T18:46:00.880Z,29.54
2018-07-03T18:48:34.498Z,29.25
2018-07-03T18:51:03.583Z,29.00
2018-07-03T18:53:35.879Z,28.76
2018-07-03T18:56:06.003Z,28.52
2018-07-03T18:58:36.327Z,28.26
2018-07-03T19:01:07.804Z,27.98
2018-07-03T19:06:40.762Z,27.37
2018-07-03T19:12:03.356Z,26.81
2018-07-03T19:14:32.487Z,26.57
2018-07-03T19:17:03.200Z,26.34
2018-07-03T19:19:37.584Z,26.12
2018-07-03T19:22:06.675Z,25.90
2018-07-03T19:24:35.423Z,25.70
2018-07-03T19:27:04.077Z,25.49
2018-07-03T19:29:32.785Z,25.29
2018-07-03T19:32:03.978Z,25.12
2018-07-03T19:34:32.666Z,24.90
2018-07-03T19:37:01.812Z,24.67
2018-07-03T19:39:36.296Z,24.48
2018-07-03T19:42:05.150Z,24.26
2018-07-03T19:44:34.619Z,24.06
2018-07-03T19:47:03.930Z,23.90
2018-07-03T19:49:33.208Z,23.77
2018-07-03T19:52:05.735Z,23.60
2018-07-03T19:54:38.220Z,23.45
2018-07-03T19:57:08.636Z,23.29
2018-07-03T19:59:37.860Z,23.17
2018-07-03T20:02:07.026Z,23.02
2018-07-03T20:04:36.972Z,22.89
2018-07-03T20:07:09.402Z,22.76
2018-07-03T20:09:38.271Z,22.64
2018-07-03T20:12:08.003Z,22.52
2018-07-03T20:14:37.123Z,22.39
2018-07-03T20:17:06.112Z,22.29
2018-07-03T20:19:35.378Z,22.99
2018-07-03T20:22:05.734Z,22.37
2018-07-03T20:24:35.809Z,22.18
2018-07-03T20:27:04.454Z,22.04
2018-07-03T20:29:33.644Z,21.92
2018-07-03T20:32:02.297Z,21.83
2018-07-03T20:34:33.500Z,21.71
2018-07-03T20:37:02.347Z,21.58
2018-07-03T20:39:33.347Z,21.47
2018-07-03T20:42:02.348Z,21.38
2018-07-03T20:44:31.767Z,22.04
2018-07-03T20:47:01.094Z,21.44
2018-07-03T20:49:30.584Z,22.01
2018-07-03T20:52:02.173Z,21.41
2018-07-03T20:54:31.334Z,21.22
2018-07-03T20:57:04.041Z,21.08
2018-07-03T20:59:36.003Z,20.99
2018-07-03T21:02:07.418Z,20.89
2018-07-03T21:04:41.363Z,20.77
2018-07-03T21:07:20.831Z,20.64
2018-07-03T21:09:52.566Z,20.46
2018-07-03T21:12:21.691Z,20.33
2018-07-03T21:14:52.571Z,20.96
2018-07-03T21:20:19.698Z,20.10
2018-07-03T21:22:51.365Z,19.98
2018-07-03T21:25:24.001Z,19.87
2018-07-03T21:27:53.351Z,20.52
2018-07-03T21:30:24.904Z,19.94
2018-07-03T21:32:57.400Z,19.74
2018-07-03T21:35:30.850Z,19.60
2018-07-03T21:38:00.405Z,19.45
2018-07-03T21:40:29.743Z,19.32
2018-07-03T21:42:58.408Z,19.17
2018-07-03T21:45:27.264Z,19.05
2018-07-03T21:47:57.439Z,18.93
2018-07-03T21:50:29.074Z,18.80
2018-07-03T21:53:00.780Z,18.65
2018-07-03T21:55:29.743Z,18.51
2018-07-03T21:57:59.023Z,18.39
2018-07-03T22:00:28.235Z,18.28
2018-07-03T22:02:57.724Z,18.19
2018-07-03T22:05:26.466Z,18.11
2018-07-03T22:07:55.279Z,18.03
2018-07-03T22:10:24.942Z,17.95
2018-07-03T22:12:57.144Z,17.88
2018-07-03T22:15:26.023Z,17.79
2018-07-03T22:17:55.415Z,17.72
2018-07-03T22:20:24.372Z,18.40
2018-07-03T22:22:53.805Z,17.84
2018-07-03T22:25:23.395Z,17.67
2018-07-03T22:27:52.033Z,17.59
2018-07-03T22:30:20.709Z,17.51
2018-07-03T22:32:49.354Z,17.47
2018-07-03T22:35:18.142Z,17.43
2018-07-03T22:37:46.933Z,17.34
2018-07-03T22:40:15.618Z,17.26
2018-07-03T22:42:44.505Z,17.17
2018-07-03T22:45:14.016Z,17.83
2018-07-03T22:47:43.246Z,17.28
2018-07-03T22:50:12.346Z,17.14
2018-07-03T22:52:40.838Z,17.05
2018-07-03T22:55:09.508Z,17.00
2018-07-03T22:57:38.143Z,16.94
2018-07-03T23:00:06.841Z,16.88
2018-07-03T23:02:35.189Z,16.77
2018-07-03T23:05:03.855Z,16.70
2018-07-03T23:07:32.479Z,16.67
2018-07-03T23:10:01.164Z,16.66
2018-07-03T23:12:29.804Z,16.63
2018-07-03T23:14:58.481Z,16.61
2018-07-03T23:17:27.162Z,17.24
2018-07-03T23:19:55.848Z,16.73
2018-07-03T23:22:33.704Z,17.26
2018-07-03T23:25:02.359Z,16.67
2018-07-03T23:27:31.805Z,16.50
2018-07-03T23:30:00.643Z,16.36
2018-07-03T23:32:29.750Z,16.27
2018-07-03T23:34:58.704Z,16.22
2018-07-03T23:37:28.022Z,16.93
2018-07-03T23:39:57.094Z,16.52
2018-07-03T23:42:26.064Z,16.48
2018-07-03T23:44:54.903Z,16.47
2018-07-03T23:48:02.893Z,16.46
2018-07-03T23:51:26.873Z,16.42
2018-07-03T23:54:51.179Z,16.32
2018-07-03T23:58:14.899Z,16.10
